Andover, NJ

5:36 PM EST on January 18, 2019 (GMT -0500)
Perona | | Change Station
Active Advisory: Winter Storm Warning

Elev 781 ft 41.01 °N, 74.69 °W | Updated 16 seconds ago

Overcast
Overcast
30.2 °F
Feels Like 30 °F
N
0
Wind Variable Wind from South
Gusts 0.0 mph

Today
High -- | Low -- °F
--% Chance of Precip.
Yesterday
High -- | Low -- °F
Precip. -- in
Pressure 30.07 in
Visibility 7.0 miles
Clouds Overcast 1800 ft
Windchill 30 °F
Dew Point 28 °F
Humidity 93%
Rainfall 0.01 in
Snow Depth Not available.
7:20 AM 4:58 PM
Waxing Gibbous, 93% visible
METAR KMMU 182155Z 21004KT 7SM BR OVC018 02/01 A3007
Pressure 30.07 in
Visibility 7.0 miles
Clouds Overcast 1800 ft
Windchill 30 °F
Dew Point 28 °F
Humidity 93%
Rainfall 0.01 in
Snow Depth Not available.
7:20 AM 4:58 PM
Waxing Gibbous, 93% visible
METAR KMMU 182155Z 21004KT 7SM BR OVC018 02/01 A3007

Get Your Daily Forecast Email!

Thanks for signing up!

Be on the lookout for a verification email in your inbox.

You'll start receiving severe weather alerts in your inbox..

×

10-Day Weather Forecast

Almanac

Astronomy

Jan. 18, 2019 Rise Set
Actual Time
Civil Twilight
Nautical Twilight
Astronomical Twilight
Moon
Length of Visible Light
Length of Day
Tomorrow will be .
, % of the Moon is Illuminated

Today's Extremes

State Highs State Lows

Community

WunderPhotos

Category 6

Welcome to Category 6. This is the collective home for Weather Underground's featured writeups by Dr. Jeff Masters (right), Bob Henson (left), Chris Burt, and other regular contributors.

Nearby

Air Quality

  Air Quality AQ Index Pollutant
Not available.

Snow Depth

Station Depth Elevation

Earthquake Activity

City Distance Mag. Time & Date
Minimum magnitude displayed is 2.5.

Coastal Water Temperatures

Place Temperature

Stations

Nearby Weather Stations

Station Location Temp. Windchill Dew Point Humidity Wind Precip. Elev Updated Type
                   

Watches & Warnings

Winter Storm Warning
Issued: 3:20 PM EST Jan. 18, 2019 – National Weather Service

... Winter Storm Warning in effect from 1 PM Saturday to 4 PM EST
Sunday...

* what... heavy mixed precipitation expected. Total snow
accumulations of 5 to 10 inches and ice accumulations of up to
two tenths of an inch expected.

* Where... Sussex, Warren and Morris counties.

* When... from 1 PM Saturday to 4 PM EST Sunday.

* Additional details... travel will be very difficult on icy and
snow- covered roads. Power outages will also be possible due to
a combination of strong winds and ice accretions. Finally,
bitter cold wind chills can be expected late Sunday into Monday
as temperatures rapidly drop behind the system.

Precautionary/preparedness actions...

A Winter Storm Warning means significant amounts of snow, sleet
and ice will make travel very hazardous or impossible.

The latest Road conditions for the state you are calling from can
be obtained by calling 5 1 1.